Time;durP1;ratioP1;P1;durP2;ratioP2;P2;SDS_P1;SDS_P2;PMS_P1;PMS_P2;Temp;Humidity;BMP_temperature;BMP_pressure;BME280_temperature;BME280_humidity;BME280_pressure;Samples;Min_cycle;Max_cycle;Signal;HPM_P1;HPM_P2
2024/02/25 14:11:44;;;;;;;4.68;3.83;;;;;;;;;;5181127;27;20153;-77
2024/02/25 14:14:10;;;;;;;3.13;2.92;;;;;;;;;;5170769;27;20390;-76
2024/02/25 14:16:36;;;;;;;3.08;2.88;;;;;;;;;;5150856;27;20058;-77
2024/02/25 14:19:02;;;;;;;2.85;2.45;;;;;;;;;;5157906;27;20039;-77
2024/02/25 14:21:33;;;;;;;4.13;2.50;;;;;;;;;;5170240;27;20544;-77
2024/02/25 14:23:59;;;;;;;3.22;2.95;;;;;;;;;;5167024;27;20038;-81
2024/02/25 14:26:25;;;;;;;3.10;2.90;;;;;;;;;;5177535;27;20076;-81
2024/02/25 14:28:51;;;;;;;3.30;3.00;;;;;;;;;;5164908;27;20047;-73
2024/02/25 14:31:16;;;;;;;7.45;2.88;;;;;;;;;;5128238;27;20121;-73
2024/02/25 14:33:44;;;;;;;2.63;2.45;;;;;;;;;;5158532;27;20084;-74
2024/02/25 14:36:10;;;;;;;7.35;2.90;;;;;;;;;;5151526;27;20027;-73
2024/02/25 14:38:36;;;;;;;5.93;3.10;;;;;;;;;;5154192;27;20129;-73
2024/02/25 14:41:02;;;;;;;3.72;2.47;;;;;;;;;;5131497;27;20604;-73
2024/02/25 14:43:28;;;;;;;2.85;2.60;;;;;;;;;;5144660;27;20118;-73
2024/02/25 14:45:54;;;;;;;2.60;2.50;;;;;;;;;;5131744;27;20117;-73
2024/02/25 14:48:20;;;;;;;5.25;3.00;;;;;;;;;;5150792;27;20125;-73
2024/02/25 14:50:47;;;;;;;2.63;2.42;;;;;;;;;;5150686;27;20042;-73
2024/02/25 14:53:13;;;;;;;3.03;2.72;;;;;;;;;;5127649;27;20391;-73
2024/02/25 14:55:39;;;;;;;3.08;2.65;;;;;;;;;;5151424;27;20079;-73
2024/02/25 14:58:05;;;;;;;2.35;2.25;;;;;;;;;;5154078;27;20037;-73
2024/02/25 15:00:31;;;;;;;2.97;2.38;;;;;;;;;;5123273;27;20035;-73
2024/02/25 15:02:57;;;;;;;3.00;2.70;;;;;;;;;;5093006;27;20062;-73
2024/02/25 15:05:23;;;;;;;3.05;2.85;;;;;;;;;;5107462;27;20055;-73
2024/02/25 15:07:50;;;;;;;3.00;2.80;;;;;;;;;;5126791;27;20025;-73
2024/02/25 15:10:16;;;;;;;6.60;2.85;;;;;;;;;;5136109;27;20473;-73
2024/02/25 15:12:43;;;;;;;3.28;3.08;;;;;;;;;;5111965;27;20492;-73
2024/02/25 15:17:55;;;;;;;4.10;3.08;;;;;;;;;;5129953;27;20043;-74
2024/02/25 15:20:21;;;;;;;3.47;3.17;;;;;;;;;;5129549;27;20027;-73
2024/02/25 15:22:47;;;;;;;3.33;3.00;;;;;;;;;;5110481;27;20110;-73
2024/02/25 15:25:13;;;;;;;2.65;2.55;;;;;;;;;;5129522;27;20063;-73
2024/02/25 15:27:39;;;;;;;3.20;2.90;;;;;;;;;;5131220;27;20034;-74
2024/02/25 15:30:06;;;;;;;2.80;2.60;;;;;;;;;;5111501;27;20046;-74
2024/02/25 15:58:35;;;;;;;4.60;3.33;;;;;;;;;;5674382;23;20519;-72
2024/02/25 16:01:01;;;;;;;2.78;2.58;;;;;;;;;;4942721;29;20176;-71
2024/02/25 16:03:27;;;;;;;3.38;3.10;;;;;;;;;;4954836;29;20534;-80
2024/02/25 16:05:53;;;;;;;4.70;3.05;;;;;;;;;;4971282;29;20031;-80
2024/02/25 16:08:19;;;;;;;3.25;2.95;;;;;;;;;;4964627;29;20095;-80
2024/02/25 16:10:46;;;;;;;4.07;3.03;;;;;;;;;;4952748;29;20099;-79
2024/02/25 16:13:12;;;;;;;8.48;3.53;;;;;;;;;;4949088;29;20042;-79
2024/02/25 16:15:40;;;;;;;3.13;2.92;;;;;;;;;;4956591;29;20035;-79
2024/02/25 16:18:06;;;;;;;2.75;2.60;;;;;;;;;;4936218;29;20524;-79
2024/02/25 16:20:37;;;;;;;2.85;2.65;;;;;;;;;;4931053;29;20040;-78
2024/02/25 16:23:03;;;;;;;;;;;;;;;;;;4944727;28;20442;-80
2024/02/25 16:25:29;;;;;;;3.53;3.22;;;;;;;;;;4940597;29;19915;-80
2024/02/25 16:27:55;;;;;;;4.60;3.08;;;;;;;;;;4903441;29;20039;-79
2024/02/25 16:30:20;;;;;;;4.35;3.83;;;;;;;;;;4954755;28;20055;-79
2024/02/25 16:32:47;;;;;;;3.33;3.13;;;;;;;;;;4940710;29;20023;-78
2024/02/25 16:35:13;;;;;;;3.65;3.35;;;;;;;;;;4941297;29;20039;-79
2024/02/25 16:37:39;;;;;;;5.65;5.25;;;;;;;;;;4922033;29;20094;-79
2024/02/25 16:40:05;;;;;;;5.35;4.88;;;;;;;;;;4926065;29;20032;-77
2024/02/25 16:42:31;;;;;;;6.47;4.60;;;;;;;;;;4943594;29;20087;-76
2024/02/25 16:44:57;;;;;;;5.63;5.22;;;;;;;;;;4936506;29;20043;-77
2024/02/25 16:47:23;;;;;;;4.43;4.03;;;;;;;;;;4928281;29;20035;-78
2024/02/25 16:49:48;;;;;;;7.22;4.07;;;;;;;;;;4930210;29;20039;-79
2024/02/25 16:52:14;;;;;;;3.58;3.35;;;;;;;;;;4943852;28;20043;-76
2024/02/25 16:54:40;;;;;;;3.35;3.13;;;;;;;;;;4930700;29;20111;-79
2024/02/25 16:57:06;;;;;;;3.15;2.92;;;;;;;;;;4945729;28;20031;-79
2024/02/25 16:59:32;;;;;;;7.13;3.30;;;;;;;;;;4917586;29;20060;-79
2024/02/25 17:01:58;;;;;;;13.80;3.55;;;;;;;;;;4908780;29;20067;-79
2024/02/25 17:04:23;;;;;;;3.40;3.10;;;;;;;;;;4910918;29;20472;-79
2024/02/25 17:06:49;;;;;;;4.65;4.20;;;;;;;;;;4912778;29;20408;-80
2024/02/25 17:09:15;;;;;;;3.22;2.97;;;;;;;;;;4912114;29;20072;-78
2024/02/25 17:11:42;;;;;;;3.75;3.45;;;;;;;;;;4915495;29;20113;-79
2024/02/25 17:14:08;;;;;;;3.88;3.55;;;;;;;;;;4913924;29;20147;-81
2024/02/25 17:16:34;;;;;;;2.85;2.65;;;;;;;;;;4914247;29;20560;-80
2024/02/25 17:19:00;;;;;;;3.50;3.10;;;;;;;;;;4915038;29;20115;-81
2024/02/25 17:21:28;;;;;;;7.45;5.20;;;;;;;;;;4915641;29;20036;-81
2024/02/25 17:23:54;;;;;;;7.38;4.57;;;;;;;;;;4915734;29;20036;-78
2024/02/25 17:26:21;;;;;;;3.45;3.15;;;;;;;;;;4911680;29;21131;-79
2024/02/25 17:28:48;;;;;;;4.75;3.88;;;;;;;;;;4910234;29;20032;-76
2024/02/25 17:31:14;;;;;;;4.35;3.92;;;;;;;;;;4912538;29;20654;-77
2024/02/25 19:00:11;;;;;;;6.25;5.38;;;;;;;;;;4912967;29;20070;-79
2024/02/25 19:03:02;;;;;;;5.82;4.80;;;;;;;;;;4913467;29;20044;-78
2024/02/25 19:05:28;;;;;;;4.68;4.25;;;;;;;;;;4909317;29;20503;-78
2024/02/25 19:07:54;;;;;;;5.85;5.35;;;;;;;;;;4911881;29;20040;-77
2024/02/25 19:10:21;;;;;;;8.05;6.82;;;;;;;;;;4911181;29;20047;-79
2024/02/25 19:12:48;;;;;;;6.60;5.07;;;;;;;;;;4919023;29;20032;-77
2024/02/25 19:15:14;;;;;;;12.32;6.63;;;;;;;;;;4897766;29;20542;-80
2024/02/25 19:17:41;;;;;;;5.72;4.93;;;;;;;;;;4904109;29;20095;-77
2024/02/25 19:20:09;;;;;;;5.43;4.40;;;;;;;;;;4895837;29;20135;-77
2024/02/25 19:22:35;;;;;;;6.53;5.93;;;;;;;;;;4912567;29;20450;-77
2024/02/25 19:25:02;;;;;;;8.82;6.63;;;;;;;;;;4869493;29;20129;-79
2024/02/25 19:27:29;;;;;;;6.10;5.53;;;;;;;;;;4879335;29;20033;-79
2024/02/25 19:29:56;;;;;;;10.50;5.82;;;;;;;;;;4880545;29;20048;-80
2024/02/25 19:32:25;;;;;;;7.35;5.18;;;;;;;;;;4871586;29;20048;-79
2024/02/25 19:34:51;;;;;;;8.07;4.97;;;;;;;;;;4886532;29;20513;-81
2024/02/25 19:37:17;;;;;;;11.45;6.70;;;;;;;;;;4884197;29;20043;-81
2024/02/25 19:39:44;;;;;;;5.75;4.05;;;;;;;;;;4882367;29;20047;-80
2024/02/25 19:42:29;;;;;;;6.38;5.53;;;;;;;;;;4881063;29;20113;-81
2024/02/25 19:44:55;;;;;;;8.60;6.35;;;;;;;;;;4875418;29;20109;-81
2024/02/25 19:47:24;;;;;;;12.10;7.13;;;;;;;;;;4868402;29;20041;-80
2024/02/25 19:49:50;;;;;;;7.20;5.32;;;;;;;;;;4853708;29;20105;-81
2024/02/25 19:52:17;;;;;;;6.93;6.25;;;;;;;;;;4859629;29;20132;-79
2024/02/25 19:54:43;;;;;;;7.40;5.47;;;;;;;;;;4863207;29;20045;-78
2024/02/25 19:57:12;;;;;;;11.82;6.90;;;;;;;;;;4857601;29;20136;-79
2024/02/25 19:59:38;;;;;;;11.55;6.45;;;;;;;;;;4839285;29;20657;-79
2024/02/25 20:02:04;;;;;;;12.20;8.02;;;;;;;;;;4855651;29;20041;-80
2024/02/25 20:04:30;;;;;;;11.68;7.32;;;;;;;;;;4852679;29;20060;-77
2024/02/25 20:07:00;;;;;;;7.57;6.30;;;;;;;;;;4851325;29;20139;-76
2024/02/25 20:09:29;;;;;;;12.35;8.10;;;;;;;;;;4836788;29;20042;-79
2024/02/25 20:11:56;;;;;;;11.40;8.98;;;;;;;;;;4852953;29;20045;-78
2024/02/25 20:14:22;;;;;;;8.85;5.70;;;;;;;;;;4847617;29;20049;-77
2024/02/25 20:16:48;;;;;;;8.57;6.97;;;;;;;;;;4854300;29;20046;-82
2024/02/25 20:19:14;;;;;;;8.65;6.10;;;;;;;;;;4840155;29;20038;-81
2024/02/25 20:21:40;;;;;;;11.60;6.88;;;;;;;;;;4868907;29;20124;-81
2024/02/25 20:24:07;;;;;;;14.35;6.72;;;;;;;;;;4835648;29;20041;-82
2024/02/25 20:26:34;;;;;;;14.63;9.30;;;;;;;;;;4862586;29;20040;-81
2024/02/25 20:29:03;;;;;;;11.32;6.38;;;;;;;;;;4850082;29;20061;-78
2024/02/25 20:31:29;;;;;;;7.97;6.78;;;;;;;;;;4839228;29;20049;-80
2024/02/25 20:33:55;;;;;;;7.18;6.15;;;;;;;;;;4852464;29;20045;-78
2024/02/25 20:36:21;;;;;;;10.32;5.57;;;;;;;;;;4856793;29;20521;-82
2024/02/25 20:38:47;;;;;;;9.23;5.70;;;;;;;;;;4859576;29;20048;-80
2024/02/25 20:41:13;;;;;;;19.73;7.35;;;;;;;;;;4848998;29;20034;-77
2024/02/25 20:43:39;;;;;;;12.70;6.20;;;;;;;;;;4849067;29;20542;-79
2024/02/25 20:46:11;;;;;;;7.30;6.30;;;;;;;;;;4866698;29;20048;-78
2024/02/25 20:48:37;;;;;;;7.88;6.68;;;;;;;;;;4854208;29;20140;-79
2024/02/25 20:51:03;;;;;;;10.48;7.57;;;;;;;;;;4850392;29;20144;-77
2024/02/25 20:53:29;;;;;;;5.78;5.03;;;;;;;;;;4855178;29;20501;-78
2024/02/25 20:55:57;;;;;;;9.18;6.22;;;;;;;;;;4850764;29;20399;-78
2024/02/25 20:58:23;;;;;;;15.38;9.93;;;;;;;;;;4849933;29;20367;-79
2024/02/25 21:00:49;;;;;;;12.57;6.75;;;;;;;;;;4829692;29;20058;-79
2024/02/25 21:03:15;;;;;;;9.40;6.68;;;;;;;;;;4825167;29;20122;-79
2024/02/25 21:05:40;;;;;;;9.70;6.70;;;;;;;;;;4827000;29;20066;-78
2024/02/25 21:08:06;;;;;;;9.95;6.85;;;;;;;;;;4831658;29;20038;-79
2024/02/25 21:10:32;;;;;;;8.30;6.40;;;;;;;;;;4826673;29;20046;-78
2024/02/25 21:12:58;;;;;;;11.25;6.10;;;;;;;;;;4831615;29;20045;-77
2024/02/25 21:15:24;;;;;;;13.45;8.00;;;;;;;;;;4825782;29;20503;-77
2024/02/25 21:17:50;;;;;;;11.18;8.23;;;;;;;;;;4817725;29;20053;-79
2024/02/25 21:20:16;;;;;;;13.05;6.75;;;;;;;;;;4842956;29;20074;-78
2024/02/25 21:22:43;;;;;;;11.73;7.65;;;;;;;;;;4841418;29;20047;-78
2024/02/25 21:25:09;;;;;;;9.73;5.47;;;;;;;;;;4845710;29;20109;-77
2024/02/25 21:27:35;;;;;;;10.05;7.13;;;;;;;;;;4855786;29;20040;-77
2024/02/25 21:30:03;;;;;;;7.35;6.28;;;;;;;;;;4856786;29;20066;-77
2024/02/25 21:32:29;;;;;;;12.30;7.90;;;;;;;;;;4854169;29;20041;-76
2024/02/25 21:34:55;;;;;;;8.80;6.78;;;;;;;;;;4844188;29;20053;-77
2024/02/25 21:37:22;;;;;;;7.28;6.38;;;;;;;;;;4834767;29;20042;-77
2024/02/25 21:39:47;;;;;;;9.73;7.30;;;;;;;;;;4823693;29;20052;-78
2024/02/25 21:42:13;;;;;;;9.05;7.45;;;;;;;;;;4823579;29;20034;-77
2024/02/25 21:44:39;;;;;;;8.85;6.28;;;;;;;;;;4820809;29;20050;-76
2024/02/25 21:47:05;;;;;;;11.05;8.25;;;;;;;;;;4822671;29;20054;-78
2024/02/25 21:49:31;;;;;;;8.55;7.07;;;;;;;;;;4806463;29;20042;-77
2024/02/25 21:51:57;;;;;;;20.65;9.50;;;;;;;;;;4821372;29;20046;-76
2024/02/25 21:54:22;;;;;;;9.80;6.93;;;;;;;;;;4820051;29;20054;-77
2024/02/25 21:56:48;;;;;;;9.35;6.95;;;;;;;;;;4820762;29;20514;-76
2024/02/25 21:59:14;;;;;;;10.60;6.22;;;;;;;;;;4832406;29;20461;-77
2024/02/25 22:01:40;;;;;;;11.52;8.32;;;;;;;;;;4858135;29;20041;-75
2024/02/25 22:04:09;;;;;;;11.18;8.05;;;;;;;;;;4840842;29;20061;-76
2024/02/25 22:06:41;;;;;;;6.88;5.65;;;;;;;;;;4826466;29;20144;-76
2024/02/25 22:09:07;;;;;;;7.53;6.47;;;;;;;;;;4858090;29;20824;-76
2024/02/25 22:11:34;;;;;;;13.63;7.32;;;;;;;;;;4811361;29;20045;-77
2024/02/25 22:13:59;;;;;;;6.38;4.90;;;;;;;;;;4858483;29;20041;-76
2024/02/25 22:16:25;;;;;;;5.40;4.95;;;;;;;;;;4858996;29;20036;-76
2024/02/25 22:18:51;;;;;;;8.40;7.05;;;;;;;;;;4857617;29;20472;-77
2024/02/25 22:21:17;;;;;;;13.80;8.38;;;;;;;;;;4843972;29;20037;-77
2024/02/25 22:23:43;;;;;;;9.82;7.10;;;;;;;;;;4848007;29;20069;-76
2024/02/25 22:26:09;;;;;;;7.65;6.65;;;;;;;;;;4877430;29;20045;-76
2024/02/25 22:28:34;;;;;;;7.95;6.28;;;;;;;;;;4880135;29;20070;-77
2024/02/25 22:31:00;;;;;;;6.82;5.55;;;;;;;;;;4871042;29;20514;-76
2024/02/25 22:33:26;;;;;;;8.57;5.82;;;;;;;;;;4845866;29;20037;-77
2024/02/25 22:35:52;;;;;;;6.00;5.25;;;;;;;;;;4863896;29;20065;-77
2024/02/25 22:38:17;;;;;;;10.32;8.57;;;;;;;;;;4863873;29;20089;-76
2024/02/25 22:40:43;;;;;;;10.32;7.80;;;;;;;;;;4862770;29;20502;-75
2024/02/25 22:43:10;;;;;;;9.35;6.63;;;;;;;;;;4844156;29;20045;-74
2024/02/25 22:45:36;;;;;;;5.95;5.28;;;;;;;;;;4844919;29;20048;-75
2024/02/25 22:48:02;;;;;;;8.93;5.43;;;;;;;;;;4860185;29;20068;-74
2024/02/25 22:50:34;;;;;;;10.52;6.38;;;;;;;;;;4844638;29;20085;-74
2024/02/25 22:53:00;;;;;;;;;;;;;;;;;;4844219;29;20506;-75
2024/02/25 22:55:27;;;;;;;4.57;3.92;;;;;;;;;;4860993;29;20366;-74
2024/02/25 22:57:54;;;;;;;8.30;5.72;;;;;;;;;;4844449;29;20045;-74
2024/02/25 23:00:21;;;;;;;10.18;7.70;;;;;;;;;;4860302;29;20109;-75
2024/02/25 23:02:48;;;;;;;8.30;5.90;;;;;;;;;;4860901;29;20192;-75
2024/02/25 23:05:17;;;;;;;6.03;5.35;;;;;;;;;;4843264;29;20537;-75
2024/02/25 23:07:43;;;;;;;9.65;7.10;;;;;;;;;;4844346;29;20545;-75
2024/02/25 23:10:10;;;;;;;9.00;5.90;;;;;;;;;;4861077;29;20058;-74
2024/02/25 23:12:36;;;;;;;5.45;4.97;;;;;;;;;;4861245;29;20423;-75
2024/02/25 23:15:05;;;;;;;9.48;7.40;;;;;;;;;;4844404;29;20038;-74
2024/02/25 23:17:32;;;;;;;5.40;4.90;;;;;;;;;;4859649;29;20052;-75
2024/02/25 23:19:59;;;;;;;6.57;5.30;;;;;;;;;;4844148;29;20041;-74
2024/02/25 23:22:26;;;;;;;7.78;5.70;;;;;;;;;;4843828;29;20034;-75
2024/02/25 23:24:52;;;;;;;6.32;5.72;;;;;;;;;;4859762;29;20129;-75
2024/02/25 23:27:18;;;;;;;7.45;6.18;;;;;;;;;;4860329;29;20042;-74
2024/02/25 23:29:44;;;;;;;10.35;8.48;;;;;;;;;;4844348;29;20059;-74
2024/02/25 23:32:11;;;;;;;7.00;5.50;;;;;;;;;;4860711;29;20045;-75
2024/02/25 23:34:38;;;;;;;6.40;5.47;;;;;;;;;;4844256;29;20541;-75
2024/02/25 23:37:05;;;;;;;7.22;6.45;;;;;;;;;;4861259;29;20071;-76
2024/02/25 23:39:31;;;;;;;8.75;6.55;;;;;;;;;;4861367;29;20048;-76
2024/02/25 23:41:57;;;;;;;8.05;6.75;;;;;;;;;;4860786;29;20058;-75
2024/02/25 23:44:23;;;;;;;7.68;5.72;;;;;;;;;;4843007;29;20046;-76
2024/02/25 23:46:50;;;;;;;8.73;6.80;;;;;;;;;;4860776;29;20042;-77
2024/02/25 23:49:16;;;;;;;8.20;5.38;;;;;;;;;;4844614;29;20041;-76
2024/02/25 23:51:44;;;;;;;5.72;5.18;;;;;;;;;;4860850;29;20602;-75
2024/02/25 23:54:10;;;;;;;7.35;5.20;;;;;;;;;;4859167;29;20046;-75
2024/02/25 23:56:36;;;;;;;11.57;5.75;;;;;;;;;;4860262;29;20052;-75
2024/02/25 23:59:03;;;;;;;5.82;4.45;;;;;;;;;;4860391;29;20062;-75
